createdAt,value
2018-02-16T11:55:59.086Z,7.60
2018-02-16T11:56:59.039Z,9.90
2018-02-16T11:58:27.814Z,6.30
2018-02-16T11:59:27.783Z,8.20
2018-02-16T12:00:27.703Z,10.20
2018-02-16T12:01:27.698Z,7.80
2018-02-16T12:02:27.623Z,9.10
2018-02-16T12:03:27.578Z,10.00
2018-02-16T12:56:11.509Z,10.00
2018-02-16T12:57:11.417Z,8.40
2018-02-16T12:58:11.366Z,5.90
2018-02-16T12:59:11.357Z,6.30
2018-02-16T13:02:22.852Z,6.10
2018-02-16T13:03:22.796Z,7.80
2018-02-16T13:04:22.791Z,5.50
2018-02-16T13:05:22.705Z,7.10
2018-02-16T13:06:22.657Z,7.60
2018-02-16T13:07:22.614Z,7.10
2018-02-16T13:08:22.589Z,6.70
2018-02-16T13:09:22.522Z,5.60
2018-02-16T13:10:22.510Z,4.80
2018-02-16T13:11:22.430Z,6.60
2018-02-16T13:12:22.390Z,5.70
2018-02-16T13:13:22.342Z,5.30
2018-02-16T13:14:22.296Z,6.60
2018-02-16T13:15:22.279Z,4.70
2018-02-16T13:16:22.209Z,4.80
2018-02-16T13:17:22.167Z,6.40
2018-02-16T13:18:22.106Z,7.10
2018-02-16T13:19:22.085Z,4.90
2018-02-16T13:20:22.054Z,4.60
2018-02-16T13:21:21.992Z,6.20
2018-02-16T13:22:21.944Z,5.50
2018-02-16T13:23:21.904Z,4.80
2018-02-16T13:24:21.852Z,5.80
2018-02-16T13:25:21.840Z,5.30
2018-02-16T13:26:21.803Z,4.80
2018-02-16T13:27:21.740Z,6.20
2018-02-16T13:28:21.683Z,6.90
2018-02-16T13:29:21.657Z,5.80
2018-02-16T13:30:21.606Z,6.00
2018-02-16T13:31:21.554Z,6.30
2018-02-16T13:32:21.530Z,6.20
2018-02-16T13:33:21.487Z,6.90
2018-02-16T13:34:21.427Z,4.40
2018-02-16T13:35:21.389Z,7.10
2018-02-16T13:36:21.339Z,5.40
2018-02-16T13:37:21.332Z,4.80
2018-02-16T13:38:21.272Z,5.70
2018-02-16T13:39:21.201Z,6.20
2018-02-16T13:40:21.164Z,5.30
2018-02-16T13:41:21.155Z,7.00
2018-02-16T13:42:21.076Z,4.50
2018-02-16T13:43:21.034Z,6.20
2018-02-16T13:44:21.012Z,6.60
2018-02-16T13:45:20.941Z,5.50
2018-02-16T13:46:20.903Z,5.60
2018-02-16T13:47:20.860Z,4.20
2018-02-16T13:48:20.832Z,6.10
2018-02-16T13:49:20.774Z,7.10
2018-02-16T13:50:20.733Z,6.20
2018-02-16T13:51:20.678Z,4.70
2018-02-16T13:52:20.639Z,6.80
2018-02-16T13:53:20.629Z,5.60
2018-02-16T13:54:20.552Z,6.20
2018-02-16T13:55:20.500Z,5.60
2018-02-16T13:56:20.465Z,5.60
2018-02-16T13:57:20.420Z,5.90
2018-02-16T13:58:20.385Z,8.00
2018-02-16T13:59:20.357Z,5.40
2018-02-16T14:00:20.288Z,8.80
2018-02-16T14:01:20.241Z,5.10
2018-02-16T14:02:20.211Z,7.80
2018-02-16T14:03:20.169Z,6.00
2018-02-16T14:04:20.135Z,4.90
2018-02-16T14:05:20.074Z,8.10
2018-02-16T14:06:20.056Z,7.20
2018-02-16T14:07:19.986Z,6.10
2018-02-16T14:08:19.946Z,5.50
2018-02-16T14:09:19.904Z,5.50
2018-02-16T14:10:19.858Z,4.90
2018-02-16T14:11:19.810Z,4.80
2018-02-16T14:12:19.786Z,6.70
2018-02-16T14:13:19.723Z,5.20
2018-02-16T14:14:19.690Z,5.90
2018-02-16T14:15:19.635Z,5.50
2018-02-16T14:16:19.618Z,5.70
2018-02-16T14:17:19.534Z,4.30
2018-02-16T14:18:19.508Z,6.50
2018-02-16T14:19:19.458Z,4.30
2018-02-16T14:20:19.413Z,4.90
2018-02-16T14:21:19.396Z,5.40
2018-02-16T14:22:19.351Z,4.70
2018-02-16T14:23:19.292Z,4.50
2018-02-16T14:24:19.250Z,5.10
2018-02-16T14:25:19.198Z,4.60
2018-02-16T14:26:19.161Z,3.20
2018-02-16T14:27:19.119Z,4.40
2018-02-16T14:28:19.084Z,4.50
2018-02-16T14:29:19.029Z,3.30
2018-02-16T14:30:18.983Z,3.90
2018-02-16T14:31:18.942Z,4.50
2018-02-16T14:32:18.925Z,5.00
2018-02-16T14:33:18.863Z,5.70
2018-02-16T14:34:18.807Z,4.00
2018-02-16T14:35:18.767Z,4.10
2018-02-16T14:36:18.727Z,3.50
2018-02-16T14:37:18.701Z,3.80
2018-02-16T14:38:18.669Z,3.70
2018-02-16T14:39:18.597Z,3.00
2018-02-16T14:40:18.558Z,3.80
2018-02-16T14:41:18.513Z,4.60
2018-02-16T14:42:18.513Z,3.90
2018-02-16T14:43:18.445Z,3.70
2018-02-16T14:44:18.373Z,4.70
2018-02-16T14:45:18.345Z,4.00
2018-02-16T14:46:18.299Z,4.30
2018-02-16T14:47:18.284Z,3.90
2018-02-16T14:48:18.221Z,5.30
2018-02-16T14:49:18.153Z,4.40
2018-02-16T14:50:18.131Z,4.00
2018-02-16T14:51:18.091Z,4.20
2018-02-16T14:52:18.078Z,4.80
2018-02-16T14:53:17.999Z,3.00
2018-02-16T14:54:17.956Z,3.90
2018-02-16T14:55:17.915Z,3.20
2018-02-16T14:56:17.873Z,2.90
2018-02-16T14:57:17.859Z,3.50
2018-02-16T14:58:17.790Z,3.60
2018-02-16T14:59:17.752Z,4.50
2018-02-16T15:00:17.709Z,3.40
2018-02-16T15:01:17.672Z,3.60
2018-02-16T15:02:17.642Z,3.10
2018-02-16T15:03:17.576Z,2.80
2018-02-16T15:04:17.533Z,3.00
2018-02-16T15:05:17.484Z,4.10
2018-02-16T15:06:17.447Z,3.90
2018-02-16T15:07:17.431Z,3.10
2018-02-16T15:08:17.383Z,4.00
2018-02-16T15:09:17.387Z,3.30
2018-02-16T15:10:17.290Z,3.00
2018-02-16T15:11:17.243Z,3.40
2018-02-16T15:12:17.192Z,2.30
2018-02-16T15:13:17.161Z,4.50
2018-02-16T15:14:17.139Z,2.60
2018-02-16T15:15:17.063Z,3.10
2018-02-16T15:16:17.022Z,3.70
2018-02-16T15:17:16.976Z,3.00
2018-02-16T15:18:16.937Z,3.10
2018-02-16T15:19:16.897Z,3.30
2018-02-16T15:20:16.890Z,3.40
2018-02-16T15:21:16.813Z,2.50
2018-02-16T15:22:16.782Z,3.50
2018-02-16T15:23:16.727Z,2.10
2018-02-16T15:24:16.687Z,3.40
2018-02-16T15:25:16.682Z,2.90
2018-02-16T15:26:16.607Z,3.10
2018-02-16T15:27:16.558Z,2.70
2018-02-16T15:28:16.511Z,3.00
2018-02-16T15:29:16.472Z,3.20
2018-02-16T15:30:16.427Z,3.40
2018-02-16T15:31:16.404Z,4.70
2018-02-16T15:32:16.341Z,2.70
2018-02-16T15:33:16.305Z,3.70
2018-02-16T15:34:16.266Z,4.10
2018-02-16T15:35:16.220Z,3.50
2018-02-16T15:36:16.200Z,4.20
2018-02-16T15:37:16.133Z,4.10
2018-02-16T15:38:16.088Z,4.60
2018-02-16T15:39:16.050Z,3.80
2018-02-16T15:40:15.995Z,4.30
2018-02-16T15:41:15.958Z,3.30
2018-02-16T15:42:15.958Z,3.50
2018-02-16T15:43:15.881Z,3.90
2018-02-16T15:44:15.839Z,3.00
2018-02-16T15:45:15.790Z,3.40
2018-02-16T15:46:15.728Z,3.90
2018-02-16T15:47:15.734Z,4.20
2018-02-16T15:48:15.670Z,2.90
2018-02-16T15:49:15.625Z,4.70
2018-02-16T15:50:15.584Z,5.50
